sensor_id;sensor_type;location;lat;lon;timestamp;P1;durP1;ratioP1;P2;durP2;ratioP2
12535;SDS011;6334;48.696;2.114;2024-01-15T00:00:02;21.57;;;12.47;;
12535;SDS011;6334;48.696;2.114;2024-01-15T00:02:32;26.03;;;13.40;;
12535;SDS011;6334;48.696;2.114;2024-01-15T00:05:02;23.73;;;12.03;;
12535;SDS011;6334;48.696;2.114;2024-01-15T00:07:46;31.12;;;15.68;;
12535;SDS011;6334;48.696;2.114;2024-01-15T00:10:16;37.87;;;18.03;;
12535;SDS011;6334;48.696;2.114;2024-01-15T00:12:48;39.87;;;20.17;;
12535;SDS011;6334;48.696;2.114;2024-01-15T00:15:19;48.53;;;23.97;;
12535;SDS011;6334;48.696;2.114;2024-01-15T00:17:52;41.00;;;21.23;;
12535;SDS011;6334;48.696;2.114;2024-01-15T00:20:22;37.53;;;20.07;;
12535;SDS011;6334;48.696;2.114;2024-01-15T00:22:53;34.23;;;18.37;;
12535;SDS011;6334;48.696;2.114;2024-01-15T00:25:24;28.10;;;15.23;;
12535;SDS011;6334;48.696;2.114;2024-01-15T00:27:54;32.37;;;16.67;;
12535;SDS011;6334;48.696;2.114;2024-01-15T00:30:24;31.77;;;17.73;;
12535;SDS011;6334;48.696;2.114;2024-01-15T00:32:53;32.60;;;17.80;;
12535;SDS011;6334;48.696;2.114;2024-01-15T00:35:23;24.93;;;14.47;;
12535;SDS011;6334;48.696;2.114;2024-01-15T00:37:54;28.37;;;16.67;;
12535;SDS011;6334;48.696;2.114;2024-01-15T00:40:25;24.52;;;13.32;;
12535;SDS011;6334;48.696;2.114;2024-01-15T00:42:55;24.70;;;14.73;;
12535;SDS011;6334;48.696;2.114;2024-01-15T00:45:25;20.00;;;12.25;;
12535;SDS011;6334;48.696;2.114;2024-01-15T00:47:56;20.27;;;12.20;;
12535;SDS011;6334;48.696;2.114;2024-01-15T00:50:25;18.07;;;10.63;;
12535;SDS011;6334;48.696;2.114;2024-01-15T00:52:58;18.30;;;10.82;;
12535;SDS011;6334;48.696;2.114;2024-01-15T00:55:28;18.23;;;10.53;;
12535;SDS011;6334;48.696;2.114;2024-01-15T00:57:58;18.53;;;11.20;;
12535;SDS011;6334;48.696;2.114;2024-01-15T01:00:31;21.15;;;10.68;;
12535;SDS011;6334;48.696;2.114;2024-01-15T01:03:01;20.90;;;11.33;;
12535;SDS011;6334;48.696;2.114;2024-01-15T01:05:34;20.61;;;10.91;;
12535;SDS011;6334;48.696;2.114;2024-01-15T01:08:04;19.52;;;11.68;;
12535;SDS011;6334;48.696;2.114;2024-01-15T01:10:34;22.57;;;12.27;;
12535;SDS011;6334;48.696;2.114;2024-01-15T01:13:05;21.37;;;11.43;;
12535;SDS011;6334;48.696;2.114;2024-01-15T01:15:35;21.20;;;11.27;;
12535;SDS011;6334;48.696;2.114;2024-01-15T01:18:04;21.73;;;10.77;;
12535;SDS011;6334;48.696;2.114;2024-01-15T01:20:34;20.27;;;11.23;;
12535;SDS011;6334;48.696;2.114;2024-01-15T01:23:05;24.10;;;12.69;;
12535;SDS011;6334;48.696;2.114;2024-01-15T01:25:36;20.43;;;12.10;;
12535;SDS011;6334;48.696;2.114;2024-01-15T01:28:07;18.77;;;10.53;;
12535;SDS011;6334;48.696;2.114;2024-01-15T01:30:37;20.23;;;11.63;;
12535;SDS011;6334;48.696;2.114;2024-01-15T01:33:07;20.93;;;11.37;;
12535;SDS011;6334;48.696;2.114;2024-01-15T01:35:38;18.40;;;10.55;;
12535;SDS011;6334;48.696;2.114;2024-01-15T01:38:12;19.17;;;10.98;;
12535;SDS011;6334;48.696;2.114;2024-01-15T01:40:41;17.60;;;9.82;;
12535;SDS011;6334;48.696;2.114;2024-01-15T01:43:11;20.50;;;10.13;;
12535;SDS011;6334;48.696;2.114;2024-01-15T01:45:41;16.93;;;9.93;;
12535;SDS011;6334;48.696;2.114;2024-01-15T01:48:11;17.37;;;9.87;;
12535;SDS011;6334;48.696;2.114;2024-01-15T01:50:40;18.80;;;10.63;;
12535;SDS011;6334;48.696;2.114;2024-01-15T01:53:10;19.33;;;10.87;;
12535;SDS011;6334;48.696;2.114;2024-01-15T01:55:40;19.67;;;11.70;;
12535;SDS011;6334;48.696;2.114;2024-01-15T01:58:10;18.70;;;10.27;;
12535;SDS011;6334;48.696;2.114;2024-01-15T02:00:40;17.80;;;10.37;;
12535;SDS011;6334;48.696;2.114;2024-01-15T02:03:11;16.75;;;9.60;;
12535;SDS011;6334;48.696;2.114;2024-01-15T02:05:41;16.33;;;9.37;;
12535;SDS011;6334;48.696;2.114;2024-01-15T02:08:14;16.67;;;9.87;;
12535;SDS011;6334;48.696;2.114;2024-01-15T02:10:44;17.90;;;10.40;;
12535;SDS011;6334;48.696;2.114;2024-01-15T02:13:17;17.30;;;9.60;;
12535;SDS011;6334;48.696;2.114;2024-01-15T02:15:48;16.47;;;9.37;;
12535;SDS011;6334;48.696;2.114;2024-01-15T02:18:18;18.27;;;9.33;;
12535;SDS011;6334;48.696;2.114;2024-01-15T02:20:48;16.57;;;9.63;;
12535;SDS011;6334;48.696;2.114;2024-01-15T02:23:18;18.50;;;10.73;;
12535;SDS011;6334;48.696;2.114;2024-01-15T02:25:47;16.80;;;10.07;;
12535;SDS011;6334;48.696;2.114;2024-01-15T02:28:17;17.83;;;9.53;;
12535;SDS011;6334;48.696;2.114;2024-01-15T02:30:47;15.02;;;9.20;;
12535;SDS011;6334;48.696;2.114;2024-01-15T02:33:18;17.77;;;10.30;;
12535;SDS011;6334;48.696;2.114;2024-01-15T02:35:48;17.17;;;9.47;;
12535;SDS011;6334;48.696;2.114;2024-01-15T02:38:18;18.03;;;9.73;;
12535;SDS011;6334;48.696;2.114;2024-01-15T02:40:55;17.50;;;9.87;;
12535;SDS011;6334;48.696;2.114;2024-01-15T02:43:25;16.33;;;8.63;;
12535;SDS011;6334;48.696;2.114;2024-01-15T02:45:57;16.53;;;9.10;;
12535;SDS011;6334;48.696;2.114;2024-01-15T02:48:27;15.40;;;8.80;;
12535;SDS011;6334;48.696;2.114;2024-01-15T02:50:58;16.56;;;9.17;;
12535;SDS011;6334;48.696;2.114;2024-01-15T02:53:27;16.23;;;9.00;;
12535;SDS011;6334;48.696;2.114;2024-01-15T02:55:57;17.00;;;8.97;;
12535;SDS011;6334;48.696;2.114;2024-01-15T02:58:27;16.70;;;9.23;;
12535;SDS011;6334;48.696;2.114;2024-01-15T03:00:56;17.10;;;9.60;;
12535;SDS011;6334;48.696;2.114;2024-01-15T03:03:27;17.23;;;9.87;;
12535;SDS011;6334;48.696;2.114;2024-01-15T03:05:58;17.03;;;9.87;;
12535;SDS011;6334;48.696;2.114;2024-01-15T03:08:28;15.77;;;9.00;;
12535;SDS011;6334;48.696;2.114;2024-01-15T03:10:58;16.80;;;9.63;;
12535;SDS011;6334;48.696;2.114;2024-01-15T03:13:27;15.47;;;9.30;;
12535;SDS011;6334;48.696;2.114;2024-01-15T03:15:58;16.27;;;9.10;;
12535;SDS011;6334;48.696;2.114;2024-01-15T03:18:28;16.83;;;9.47;;
12535;SDS011;6334;48.696;2.114;2024-01-15T03:20:59;19.60;;;10.75;;
12535;SDS011;6334;48.696;2.114;2024-01-15T03:23:29;21.40;;;10.07;;
12535;SDS011;6334;48.696;2.114;2024-01-15T03:26:01;24.30;;;11.10;;
12535;SDS011;6334;48.696;2.114;2024-01-15T03:28:32;21.23;;;9.87;;
12535;SDS011;6334;48.696;2.114;2024-01-15T03:31:02;19.90;;;10.17;;
12535;SDS011;6334;48.696;2.114;2024-01-15T03:33:32;19.07;;;10.07;;
12535;SDS011;6334;48.696;2.114;2024-01-15T03:36:03;17.80;;;10.43;;
12535;SDS011;6334;48.696;2.114;2024-01-15T03:38:32;18.17;;;10.10;;
12535;SDS011;6334;48.696;2.114;2024-01-15T03:41:03;18.50;;;10.10;;
12535;SDS011;6334;48.696;2.114;2024-01-15T03:43:33;16.30;;;8.93;;
12535;SDS011;6334;48.696;2.114;2024-01-15T03:46:05;18.10;;;9.36;;
12535;SDS011;6334;48.696;2.114;2024-01-15T03:48:34;18.50;;;9.70;;
12535;SDS011;6334;48.696;2.114;2024-01-15T03:51:05;19.00;;;10.30;;
12535;SDS011;6334;48.696;2.114;2024-01-15T03:53:34;17.20;;;9.93;;
12535;SDS011;6334;48.696;2.114;2024-01-15T03:56:09;15.33;;;8.70;;
12535;SDS011;6334;48.696;2.114;2024-01-15T03:58:39;15.03;;;8.80;;
12535;SDS011;6334;48.696;2.114;2024-01-15T04:01:10;16.33;;;8.45;;
12535;SDS011;6334;48.696;2.114;2024-01-15T04:03:44;15.96;;;9.30;;
12535;SDS011;6334;48.696;2.114;2024-01-15T04:06:17;16.67;;;9.50;;
12535;SDS011;6334;48.696;2.114;2024-01-15T04:08:47;15.17;;;9.27;;
12535;SDS011;6334;48.696;2.114;2024-01-15T04:11:17;15.90;;;8.80;;
12535;SDS011;6334;48.696;2.114;2024-01-15T04:13:50;13.93;;;7.57;;
12535;SDS011;6334;48.696;2.114;2024-01-15T04:16:20;15.57;;;8.23;;
12535;SDS011;6334;48.696;2.114;2024-01-15T04:18:53;15.36;;;8.86;;
12535;SDS011;6334;48.696;2.114;2024-01-15T04:21:22;14.87;;;8.10;;
12535;SDS011;6334;48.696;2.114;2024-01-15T04:23:52;15.93;;;7.87;;
12535;SDS011;6334;48.696;2.114;2024-01-15T04:26:22;14.27;;;8.30;;
12535;SDS011;6334;48.696;2.114;2024-01-15T04:28:53;14.57;;;8.53;;
12535;SDS011;6334;48.696;2.114;2024-01-15T04:31:24;15.20;;;8.27;;
12535;SDS011;6334;48.696;2.114;2024-01-15T04:33:54;14.77;;;8.07;;
12535;SDS011;6334;48.696;2.114;2024-01-15T04:36:24;16.03;;;8.67;;
12535;SDS011;6334;48.696;2.114;2024-01-15T04:38:54;14.63;;;8.30;;
12535;SDS011;6334;48.696;2.114;2024-01-15T04:41:28;14.43;;;7.83;;
12535;SDS011;6334;48.696;2.114;2024-01-15T04:43:58;11.93;;;7.30;;
12535;SDS011;6334;48.696;2.114;2024-01-15T04:46:28;13.63;;;7.37;;
12535;SDS011;6334;48.696;2.114;2024-01-15T04:48:59;13.97;;;7.43;;
12535;SDS011;6334;48.696;2.114;2024-01-15T04:51:31;14.53;;;7.53;;
12535;SDS011;6334;48.696;2.114;2024-01-15T04:54:03;14.07;;;7.47;;
12535;SDS011;6334;48.696;2.114;2024-01-15T04:56:33;12.87;;;7.57;;
12535;SDS011;6334;48.696;2.114;2024-01-15T04:59:04;13.87;;;7.27;;
12535;SDS011;6334;48.696;2.114;2024-01-15T05:01:35;13.23;;;7.40;;
12535;SDS011;6334;48.696;2.114;2024-01-15T05:04:06;13.93;;;7.90;;
12535;SDS011;6334;48.696;2.114;2024-01-15T05:06:36;12.60;;;7.23;;
12535;SDS011;6334;48.696;2.114;2024-01-15T05:09:06;13.37;;;7.63;;
12535;SDS011;6334;48.696;2.114;2024-01-15T05:11:36;15.97;;;8.33;;
12535;SDS011;6334;48.696;2.114;2024-01-15T05:14:08;13.17;;;7.53;;
12535;SDS011;6334;48.696;2.114;2024-01-15T05:16:44;13.17;;;7.93;;
12535;SDS011;6334;48.696;2.114;2024-01-15T05:19:10;15.13;;;8.07;;
12535;SDS011;6334;48.696;2.114;2024-01-15T05:21:40;13.23;;;7.70;;
12535;SDS011;6334;48.696;2.114;2024-01-15T05:24:10;14.53;;;8.03;;
12535;SDS011;6334;48.696;2.114;2024-01-15T05:26:39;14.77;;;8.43;;
12535;SDS011;6334;48.696;2.114;2024-01-15T05:29:09;15.20;;;8.13;;
12535;SDS011;6334;48.696;2.114;2024-01-15T05:31:39;15.63;;;8.63;;
12535;SDS011;6334;48.696;2.114;2024-01-15T05:34:09;14.35;;;8.63;;
12535;SDS011;6334;48.696;2.114;2024-01-15T05:36:40;15.80;;;9.03;;
12535;SDS011;6334;48.696;2.114;2024-01-15T05:39:11;14.03;;;8.47;;
12535;SDS011;6334;48.696;2.114;2024-01-15T05:41:41;15.23;;;8.00;;
12535;SDS011;6334;48.696;2.114;2024-01-15T05:44:18;14.88;;;7.92;;
12535;SDS011;6334;48.696;2.114;2024-01-15T05:46:48;14.53;;;7.83;;
12535;SDS011;6334;48.696;2.114;2024-01-15T05:49:17;15.70;;;8.23;;
12535;SDS011;6334;48.696;2.114;2024-01-15T05:51:48;12.90;;;7.73;;
12535;SDS011;6334;48.696;2.114;2024-01-15T05:54:19;14.77;;;8.03;;
12535;SDS011;6334;48.696;2.114;2024-01-15T05:56:49;13.35;;;7.72;;
12535;SDS011;6334;48.696;2.114;2024-01-15T05:59:19;16.50;;;8.50;;
12535;SDS011;6334;48.696;2.114;2024-01-15T06:01:52;14.97;;;8.50;;
12535;SDS011;6334;48.696;2.114;2024-01-15T06:04:23;15.30;;;8.27;;
12535;SDS011;6334;48.696;2.114;2024-01-15T06:06:53;14.50;;;7.66;;
12535;SDS011;6334;48.696;2.114;2024-01-15T06:09:23;13.63;;;7.30;;
12535;SDS011;6334;48.696;2.114;2024-01-15T06:11:54;16.37;;;8.47;;
12535;SDS011;6334;48.696;2.114;2024-01-15T06:14:24;14.23;;;8.07;;
12535;SDS011;6334;48.696;2.114;2024-01-15T06:16:57;14.07;;;8.17;;
12535;SDS011;6334;48.696;2.114;2024-01-15T06:19:27;13.20;;;7.87;;
12535;SDS011;6334;48.696;2.114;2024-01-15T06:21:59;14.90;;;7.60;;
12535;SDS011;6334;48.696;2.114;2024-01-15T06:24:29;13.93;;;7.83;;
12535;SDS011;6334;48.696;2.114;2024-01-15T06:27:06;14.30;;;7.90;;
12535;SDS011;6334;48.696;2.114;2024-01-15T06:29:37;11.60;;;7.13;;
12535;SDS011;6334;48.696;2.114;2024-01-15T06:32:05;14.80;;;8.20;;
12535;SDS011;6334;48.696;2.114;2024-01-15T06:34:35;15.10;;;8.47;;
12535;SDS011;6334;48.696;2.114;2024-01-15T06:37:05;12.70;;;7.26;;
12535;SDS011;6334;48.696;2.114;2024-01-15T06:39:36;13.00;;;7.70;;
12535;SDS011;6334;48.696;2.114;2024-01-15T06:42:06;15.33;;;8.13;;
12535;SDS011;6334;48.696;2.114;2024-01-15T06:44:35;14.50;;;8.13;;
12535;SDS011;6334;48.696;2.114;2024-01-15T06:47:08;14.53;;;8.17;;
12535;SDS011;6334;48.696;2.114;2024-01-15T06:49:39;14.20;;;7.73;;
12535;SDS011;6334;48.696;2.114;2024-01-15T06:52:11;13.17;;;7.50;;
12535;SDS011;6334;48.696;2.114;2024-01-15T06:54:42;14.33;;;8.00;;
12535;SDS011;6334;48.696;2.114;2024-01-15T06:57:12;13.30;;;8.07;;
12535;SDS011;6334;48.696;2.114;2024-01-15T06:59:43;15.37;;;8.37;;
12535;SDS011;6334;48.696;2.114;2024-01-15T07:02:13;13.47;;;8.07;;
12535;SDS011;6334;48.696;2.114;2024-01-15T07:04:44;15.10;;;8.90;;
12535;SDS011;6334;48.696;2.114;2024-01-15T07:07:14;13.63;;;8.27;;
12535;SDS011;6334;48.696;2.114;2024-01-15T07:09:45;13.67;;;8.03;;
12535;SDS011;6334;48.696;2.114;2024-01-15T07:12:15;15.03;;;8.27;;
12535;SDS011;6334;48.696;2.114;2024-01-15T07:14:46;14.97;;;8.00;;
12535;SDS011;6334;48.696;2.114;2024-01-15T07:17:16;15.03;;;7.73;;
12535;SDS011;6334;48.696;2.114;2024-01-15T07:19:47;14.30;;;7.73;;
12535;SDS011;6334;48.696;2.114;2024-01-15T07:22:17;13.60;;;7.77;;
12535;SDS011;6334;48.696;2.114;2024-01-15T07:24:47;15.60;;;8.80;;
12535;SDS011;6334;48.696;2.114;2024-01-15T07:27:17;13.97;;;7.90;;
12535;SDS011;6334;48.696;2.114;2024-01-15T07:29:48;14.17;;;8.13;;
12535;SDS011;6334;48.696;2.114;2024-01-15T07:32:19;15.00;;;8.10;;
12535;SDS011;6334;48.696;2.114;2024-01-15T07:34:50;14.33;;;8.23;;
12535;SDS011;6334;48.696;2.114;2024-01-15T07:37:20;14.20;;;8.20;;
12535;SDS011;6334;48.696;2.114;2024-01-15T07:39:51;15.03;;;9.00;;
12535;SDS011;6334;48.696;2.114;2024-01-15T07:42:21;14.07;;;8.30;;
12535;SDS011;6334;48.696;2.114;2024-01-15T07:44:52;15.33;;;8.90;;
12535;SDS011;6334;48.696;2.114;2024-01-15T07:47:22;15.63;;;9.13;;
12535;SDS011;6334;48.696;2.114;2024-01-15T07:49:53;18.60;;;10.50;;
12535;SDS011;6334;48.696;2.114;2024-01-15T07:52:23;15.07;;;9.20;;
12535;SDS011;6334;48.696;2.114;2024-01-15T07:54:54;15.57;;;8.97;;
12535;SDS011;6334;48.696;2.114;2024-01-15T07:57:24;17.73;;;9.73;;
12535;SDS011;6334;48.696;2.114;2024-01-15T07:59:55;13.63;;;8.07;;
12535;SDS011;6334;48.696;2.114;2024-01-15T08:02:25;15.47;;;8.30;;
12535;SDS011;6334;48.696;2.114;2024-01-15T08:04:56;15.30;;;8.90;;
12535;SDS011;6334;48.696;2.114;2024-01-15T08:07:26;15.40;;;8.90;;
12535;SDS011;6334;48.696;2.114;2024-01-15T08:09:56;15.10;;;8.50;;
12535;SDS011;6334;48.696;2.114;2024-01-15T08:12:27;17.13;;;9.50;;
12535;SDS011;6334;48.696;2.114;2024-01-15T08:14:58;16.10;;;8.77;;
12535;SDS011;6334;48.696;2.114;2024-01-15T08:17:28;14.53;;;8.27;;
12535;SDS011;6334;48.696;2.114;2024-01-15T08:19:59;15.07;;;8.67;;
12535;SDS011;6334;48.696;2.114;2024-01-15T08:22:29;14.37;;;8.27;;
12535;SDS011;6334;48.696;2.114;2024-01-15T08:24:59;16.30;;;8.40;;
12535;SDS011;6334;48.696;2.114;2024-01-15T08:27:30;15.27;;;8.73;;
12535;SDS011;6334;48.696;2.114;2024-01-15T08:30:01;15.90;;;8.50;;
12535;SDS011;6334;48.696;2.114;2024-01-15T08:32:32;15.20;;;9.30;;
12535;SDS011;6334;48.696;2.114;2024-01-15T08:35:02;15.60;;;8.57;;
12535;SDS011;6334;48.696;2.114;2024-01-15T08:37:33;15.93;;;9.10;;
12535;SDS011;6334;48.696;2.114;2024-01-15T08:40:03;15.20;;;8.73;;
12535;SDS011;6334;48.696;2.114;2024-01-15T08:42:34;15.83;;;8.90;;
12535;SDS011;6334;48.696;2.114;2024-01-15T08:45:05;15.33;;;8.83;;
12535;SDS011;6334;48.696;2.114;2024-01-15T08:47:36;15.70;;;8.80;;
12535;SDS011;6334;48.696;2.114;2024-01-15T08:50:06;14.93;;;9.03;;
12535;SDS011;6334;48.696;2.114;2024-01-15T08:52:38;16.47;;;8.80;;
12535;SDS011;6334;48.696;2.114;2024-01-15T08:55:08;15.93;;;8.77;;
12535;SDS011;6334;48.696;2.114;2024-01-15T08:57:39;15.83;;;8.80;;
12535;SDS011;6334;48.696;2.114;2024-01-15T09:00:09;15.17;;;9.07;;
12535;SDS011;6334;48.696;2.114;2024-01-15T09:02:40;13.93;;;8.07;;
12535;SDS011;6334;48.696;2.114;2024-01-15T09:05:10;14.43;;;8.70;;
12535;SDS011;6334;48.696;2.114;2024-01-15T09:07:41;14.43;;;8.30;;
12535;SDS011;6334;48.696;2.114;2024-01-15T09:10:11;12.60;;;7.63;;
12535;SDS011;6334;48.696;2.114;2024-01-15T09:12:42;14.67;;;8.70;;
12535;SDS011;6334;48.696;2.114;2024-01-15T09:15:14;16.10;;;9.00;;
12535;SDS011;6334;48.696;2.114;2024-01-15T09:17:45;14.97;;;8.57;;
12535;SDS011;6334;48.696;2.114;2024-01-15T09:20:15;12.50;;;7.70;;
12535;SDS011;6334;48.696;2.114;2024-01-15T09:22:46;15.17;;;8.73;;
12535;SDS011;6334;48.696;2.114;2024-01-15T09:25:16;14.83;;;7.77;;
12535;SDS011;6334;48.696;2.114;2024-01-15T09:27:46;14.93;;;8.20;;
12535;SDS011;6334;48.696;2.114;2024-01-15T09:30:17;14.63;;;8.10;;
12535;SDS011;6334;48.696;2.114;2024-01-15T09:32:47;15.23;;;8.43;;
12535;SDS011;6334;48.696;2.114;2024-01-15T09:35:18;14.57;;;7.97;;
12535;SDS011;6334;48.696;2.114;2024-01-15T09:37:48;14.17;;;7.40;;
12535;SDS011;6334;48.696;2.114;2024-01-15T09:40:19;15.00;;;8.27;;
12535;SDS011;6334;48.696;2.114;2024-01-15T09:42:49;14.73;;;7.97;;
12535;SDS011;6334;48.696;2.114;2024-01-15T09:45:20;14.50;;;7.87;;
12535;SDS011;6334;48.696;2.114;2024-01-15T09:47:50;13.40;;;7.87;;
12535;SDS011;6334;48.696;2.114;2024-01-15T09:50:22;14.47;;;8.50;;
12535;SDS011;6334;48.696;2.114;2024-01-15T09:52:52;14.80;;;7.67;;
12535;SDS011;6334;48.696;2.114;2024-01-15T09:55:23;13.87;;;7.50;;
12535;SDS011;6334;48.696;2.114;2024-01-15T09:57:53;12.90;;;7.83;;
12535;SDS011;6334;48.696;2.114;2024-01-15T10:00:23;13.67;;;7.83;;
12535;SDS011;6334;48.696;2.114;2024-01-15T10:02:53;13.17;;;7.20;;
12535;SDS011;6334;48.696;2.114;2024-01-15T10:05:24;15.30;;;8.13;;
12535;SDS011;6334;48.696;2.114;2024-01-15T10:07:55;13.00;;;7.57;;
12535;SDS011;6334;48.696;2.114;2024-01-15T10:10:25;14.40;;;8.03;;
12535;SDS011;6334;48.696;2.114;2024-01-15T10:12:56;14.50;;;8.30;;
12535;SDS011;6334;48.696;2.114;2024-01-15T10:15:26;13.67;;;8.13;;
12535;SDS011;6334;48.696;2.114;2024-01-15T10:17:57;13.93;;;7.90;;
12535;SDS011;6334;48.696;2.114;2024-01-15T10:20:27;14.67;;;8.30;;
12535;SDS011;6334;48.696;2.114;2024-01-15T10:22:57;16.40;;;8.13;;
12535;SDS011;6334;48.696;2.114;2024-01-15T10:25:28;13.10;;;7.03;;
12535;SDS011;6334;48.696;2.114;2024-01-15T10:28:02;14.03;;;8.20;;
12535;SDS011;6334;48.696;2.114;2024-01-15T10:30:32;12.70;;;7.00;;
12535;SDS011;6334;48.696;2.114;2024-01-15T10:33:03;15.13;;;7.50;;
12535;SDS011;6334;48.696;2.114;2024-01-15T10:35:34;11.53;;;7.10;;
12535;SDS011;6334;48.696;2.114;2024-01-15T10:38:03;11.60;;;7.07;;
12535;SDS011;6334;48.696;2.114;2024-01-15T10:40:33;12.80;;;6.77;;
12535;SDS011;6334;48.696;2.114;2024-01-15T10:43:04;12.33;;;7.17;;
12535;SDS011;6334;48.696;2.114;2024-01-15T10:45:34;13.00;;;7.00;;
12535;SDS011;6334;48.696;2.114;2024-01-15T10:48:05;11.37;;;6.67;;
12535;SDS011;6334;48.696;2.114;2024-01-15T10:50:36;9.60;;;5.90;;
12535;SDS011;6334;48.696;2.114;2024-01-15T10:53:06;12.53;;;7.00;;
12535;SDS011;6334;48.696;2.114;2024-01-15T10:55:37;10.93;;;6.10;;
12535;SDS011;6334;48.696;2.114;2024-01-15T10:58:09;10.40;;;6.40;;
12535;SDS011;6334;48.696;2.114;2024-01-15T11:00:38;12.93;;;5.93;;
12535;SDS011;6334;48.696;2.114;2024-01-15T11:03:08;10.63;;;5.93;;
12535;SDS011;6334;48.696;2.114;2024-01-15T11:05:39;11.27;;;6.20;;
12535;SDS011;6334;48.696;2.114;2024-01-15T11:08:09;9.90;;;5.63;;
12535;SDS011;6334;48.696;2.114;2024-01-15T11:13:14;11.43;;;5.60;;
12535;SDS011;6334;48.696;2.114;2024-01-15T11:18:30;7.90;;;4.47;;
12535;SDS011;6334;48.696;2.114;2024-01-15T11:23:52;9.03;;;4.40;;
12535;SDS011;6334;48.696;2.114;2024-01-15T11:26:27;6.73;;;4.20;;
12535;SDS011;6334;48.696;2.114;2024-01-15T11:29:09;5.23;;;3.70;;
12535;SDS011;6334;48.696;2.114;2024-01-15T11:34:09;9.47;;;4.60;;
12535;SDS011;6334;48.696;2.114;2024-01-15T11:41:58;7.30;;;4.00;;
12535;SDS011;6334;48.696;2.114;2024-01-15T11:44:27;6.90;;;3.77;;
12535;SDS011;6334;48.696;2.114;2024-01-15T11:47:01;5.60;;;4.10;;
12535;SDS011;6334;48.696;2.114;2024-01-15T11:52:34;6.07;;;3.50;;
12535;SDS011;6334;48.696;2.114;2024-01-15T12:00:11;6.83;;;3.43;;
12535;SDS011;6334;48.696;2.114;2024-01-15T12:02:42;4.17;;;3.00;;
12535;SDS011;6334;48.696;2.114;2024-01-15T12:05:12;5.07;;;3.50;;
12535;SDS011;6334;48.696;2.114;2024-01-15T12:07:44;6.13;;;3.43;;
12535;SDS011;6334;48.696;2.114;2024-01-15T12:10:13;5.17;;;3.40;;
12535;SDS011;6334;48.696;2.114;2024-01-15T12:12:58;2.93;;;2.63;;
12535;SDS011;6334;48.696;2.114;2024-01-15T12:15:29;5.43;;;3.40;;
12535;SDS011;6334;48.696;2.114;2024-01-15T12:18:00;4.07;;;2.90;;
12535;SDS011;6334;48.696;2.114;2024-01-15T12:20:30;4.90;;;3.40;;
12535;SDS011;6334;48.696;2.114;2024-01-15T12:23:01;3.33;;;2.73;;
12535;SDS011;6334;48.696;2.114;2024-01-15T12:25:31;4.63;;;2.93;;
12535;SDS011;6334;48.696;2.114;2024-01-15T12:28:02;5.23;;;3.33;;
12535;SDS011;6334;48.696;2.114;2024-01-15T12:30:33;3.43;;;3.07;;
12535;SDS011;6334;48.696;2.114;2024-01-15T12:33:04;3.30;;;2.83;;
12535;SDS011;6334;48.696;2.114;2024-01-15T12:35:34;3.67;;;3.10;;
12535;SDS011;6334;48.696;2.114;2024-01-15T12:38:05;3.20;;;2.80;;
12535;SDS011;6334;48.696;2.114;2024-01-15T12:40:35;3.77;;;2.80;;
12535;SDS011;6334;48.696;2.114;2024-01-15T12:43:06;7.13;;;3.10;;
12535;SDS011;6334;48.696;2.114;2024-01-15T12:45:36;2.23;;;2.10;;
12535;SDS011;6334;48.696;2.114;2024-01-15T12:48:07;4.57;;;2.20;;
12535;SDS011;6334;48.696;2.114;2024-01-15T12:50:37;4.50;;;2.33;;
12535;SDS011;6334;48.696;2.114;2024-01-15T12:53:09;9.43;;;2.30;;
12535;SDS011;6334;48.696;2.114;2024-01-15T12:55:40;2.63;;;2.37;;
12535;SDS011;6334;48.696;2.114;2024-01-15T12:58:10;2.43;;;2.03;;
12535;SDS011;6334;48.696;2.114;2024-01-15T13:00:40;1.97;;;1.80;;
12535;SDS011;6334;48.696;2.114;2024-01-15T13:03:11;3.63;;;2.30;;
12535;SDS011;6334;48.696;2.114;2024-01-15T13:05:42;3.97;;;2.03;;
12535;SDS011;6334;48.696;2.114;2024-01-15T13:08:12;2.43;;;1.80;;
12535;SDS011;6334;48.696;2.114;2024-01-15T13:10:42;4.23;;;2.33;;
12535;SDS011;6334;48.696;2.114;2024-01-15T13:13:13;2.17;;;1.60;;
12535;SDS011;6334;48.696;2.114;2024-01-15T13:15:43;3.40;;;2.00;;
12535;SDS011;6334;48.696;2.114;2024-01-15T13:18:14;3.67;;;2.27;;
12535;SDS011;6334;48.696;2.114;2024-01-15T13:20:44;1.83;;;1.63;;
12535;SDS011;6334;48.696;2.114;2024-01-15T13:23:15;2.10;;;1.30;;
12535;SDS011;6334;48.696;2.114;2024-01-15T13:25:45;1.97;;;1.40;;
12535;SDS011;6334;48.696;2.114;2024-01-15T13:28:16;1.17;;;1.07;;
12535;SDS011;6334;48.696;2.114;2024-01-15T13:30:46;2.33;;;1.40;;
12535;SDS011;6334;48.696;2.114;2024-01-15T13:33:17;4.67;;;1.60;;
12535;SDS011;6334;48.696;2.114;2024-01-15T13:35:47;3.43;;;1.57;;
12535;SDS011;6334;48.696;2.114;2024-01-15T13:38:17;2.67;;;1.43;;
12535;SDS011;6334;48.696;2.114;2024-01-15T13:40:47;2.97;;;1.17;;
12535;SDS011;6334;48.696;2.114;2024-01-15T13:43:19;2.60;;;1.30;;
12535;SDS011;6334;48.696;2.114;2024-01-15T13:45:49;3.70;;;1.57;;
12535;SDS011;6334;48.696;2.114;2024-01-15T13:48:20;2.33;;;1.10;;
12535;SDS011;6334;48.696;2.114;2024-01-15T13:50:50;2.10;;;1.10;;
12535;SDS011;6334;48.696;2.114;2024-01-15T13:53:21;1.13;;;1.00;;
12535;SDS011;6334;48.696;2.114;2024-01-15T13:55:50;2.00;;;0.97;;
12535;SDS011;6334;48.696;2.114;2024-01-15T13:58:20;2.97;;;1.67;;
12535;SDS011;6334;48.696;2.114;2024-01-15T14:00:51;5.00;;;1.90;;
12535;SDS011;6334;48.696;2.114;2024-01-15T14:03:20;3.23;;;1.37;;
12535;SDS011;6334;48.696;2.114;2024-01-15T14:05:50;2.97;;;1.93;;
12535;SDS011;6334;48.696;2.114;2024-01-15T14:08:26;1.53;;;1.03;;
12535;SDS011;6334;48.696;2.114;2024-01-15T14:10:56;3.30;;;1.67;;
12535;SDS011;6334;48.696;2.114;2024-01-15T14:13:26;1.30;;;1.20;;
12535;SDS011;6334;48.696;2.114;2024-01-15T14:15:57;4.57;;;1.53;;
12535;SDS011;6334;48.696;2.114;2024-01-15T14:18:27;1.43;;;1.20;;
12535;SDS011;6334;48.696;2.114;2024-01-15T14:20:57;2.63;;;1.57;;
12535;SDS011;6334;48.696;2.114;2024-01-15T14:23:26;1.43;;;1.33;;
12535;SDS011;6334;48.696;2.114;2024-01-15T14:25:56;4.60;;;1.60;;
12535;SDS011;6334;48.696;2.114;2024-01-15T14:28:26;3.13;;;1.30;;
12535;SDS011;6334;48.696;2.114;2024-01-15T14:30:55;2.40;;;1.30;;
12535;SDS011;6334;48.696;2.114;2024-01-15T14:33:25;1.83;;;1.70;;
12535;SDS011;6334;48.696;2.114;2024-01-15T14:35:54;4.40;;;1.93;;
12535;SDS011;6334;48.696;2.114;2024-01-15T14:38:24;1.23;;;1.20;;
12535;SDS011;6334;48.696;2.114;2024-01-15T14:40:54;0.90;;;0.90;;
12535;SDS011;6334;48.696;2.114;2024-01-15T14:43:23;1.53;;;1.43;;
12535;SDS011;6334;48.696;2.114;2024-01-15T14:45:53;1.67;;;1.57;;
12535;SDS011;6334;48.696;2.114;2024-01-15T14:48:22;2.07;;;1.87;;
12535;SDS011;6334;48.696;2.114;2024-01-15T14:50:52;2.20;;;1.33;;
12535;SDS011;6334;48.696;2.114;2024-01-15T14:53:21;2.23;;;1.30;;
12535;SDS011;6334;48.696;2.114;2024-01-15T14:55:51;2.37;;;1.67;;
12535;SDS011;6334;48.696;2.114;2024-01-15T14:58:22;3.30;;;1.80;;
12535;SDS011;6334;48.696;2.114;2024-01-15T15:00:51;5.47;;;2.47;;
12535;SDS011;6334;48.696;2.114;2024-01-15T15:03:21;1.77;;;1.50;;
12535;SDS011;6334;48.696;2.114;2024-01-15T15:05:52;2.53;;;1.83;;
12535;SDS011;6334;48.696;2.114;2024-01-15T15:08:22;2.00;;;1.80;;
12535;SDS011;6334;48.696;2.114;2024-01-15T15:10:52;1.83;;;1.67;;
12535;SDS011;6334;48.696;2.114;2024-01-15T15:13:21;2.30;;;1.53;;
12535;SDS011;6334;48.696;2.114;2024-01-15T15:15:51;1.93;;;1.43;;
12535;SDS011;6334;48.696;2.114;2024-01-15T15:18:20;1.43;;;1.20;;
12535;SDS011;6334;48.696;2.114;2024-01-15T15:20:50;1.67;;;1.40;;
12535;SDS011;6334;48.696;2.114;2024-01-15T15:23:20;3.67;;;1.60;;
12535;SDS011;6334;48.696;2.114;2024-01-15T15:25:50;3.80;;;1.33;;
12535;SDS011;6334;48.696;2.114;2024-01-15T15:28:21;2.33;;;1.37;;
12535;SDS011;6334;48.696;2.114;2024-01-15T15:30:50;1.97;;;1.20;;